createdAt,value
2023-03-05T00:02:42.955Z,99.90
2023-03-05T00:05:43.899Z,99.90
2023-03-05T00:08:45.091Z,99.90
2023-03-05T00:11:45.881Z,99.90
2023-03-05T00:14:46.942Z,99.90
2023-03-05T00:17:47.961Z,99.90
2023-03-05T00:20:49.905Z,99.90
2023-03-05T00:23:51.897Z,99.90
2023-03-05T00:26:53.381Z,99.90
2023-03-05T00:29:54.388Z,99.90
2023-03-05T00:32:55.516Z,99.90
2023-03-05T00:35:57.378Z,99.90
2023-03-05T00:38:59.115Z,99.90
2023-03-05T00:42:00.116Z,99.90
2023-03-05T00:45:01.968Z,99.90
2023-03-05T00:48:04.916Z,99.90
2023-03-05T00:51:06.160Z,99.90
2023-03-05T00:54:07.488Z,99.90
2023-03-05T00:57:08.394Z,99.90
2023-03-05T01:00:11.950Z,99.90
2023-03-05T01:03:13.080Z,99.90
2023-03-05T01:06:16.594Z,99.90
2023-03-05T01:09:17.933Z,99.90
2023-03-05T01:12:19.154Z,99.90
2023-03-05T01:15:19.882Z,99.90
2023-03-05T01:18:21.283Z,99.90
2023-03-05T01:21:22.191Z,99.90
2023-03-05T01:24:23.369Z,99.90
2023-03-05T01:27:24.494Z,99.90
2023-03-05T01:30:25.266Z,99.90
2023-03-05T01:33:26.588Z,99.90
2023-03-05T01:36:27.562Z,99.90
2023-03-05T01:39:28.833Z,99.90
2023-03-05T01:42:30.010Z,99.90
2023-03-05T01:45:34.050Z,99.90
2023-03-05T01:48:34.954Z,99.90
2023-03-05T01:51:45.898Z,99.90
2023-03-05T01:54:53.688Z,99.90
2023-03-05T01:58:00.644Z,99.90
2023-03-05T02:01:02.591Z,99.90
2023-03-05T02:04:04.091Z,99.90
2023-03-05T02:07:06.067Z,99.90
2023-03-05T02:10:30.529Z,99.90
2023-03-05T02:13:38.391Z,99.90
2023-03-05T02:16:39.761Z,99.90
2023-03-05T02:19:57.373Z,99.90
2023-03-05T02:22:58.797Z,99.90
2023-03-05T02:26:00.326Z,99.90
2023-03-05T02:29:05.504Z,99.90
2023-03-05T02:32:07.066Z,99.90
2023-03-05T02:35:09.076Z,99.90
2023-03-05T02:38:11.981Z,99.90
2023-03-05T02:41:13.914Z,99.90
2023-03-05T02:44:15.070Z,99.90
2023-03-05T02:47:15.809Z,99.90
2023-03-05T02:50:18.005Z,99.90
2023-03-05T02:53:19.401Z,99.90
2023-03-05T02:56:20.768Z,99.90
2023-03-05T02:59:21.639Z,99.90
2023-03-05T03:02:22.906Z,99.90
2023-03-05T03:05:23.920Z,99.90
2023-03-05T03:08:24.602Z,99.90
2023-03-05T03:11:25.454Z,99.90
2023-03-05T03:14:26.398Z,99.90
2023-03-05T03:17:27.581Z,99.90
2023-03-05T03:20:28.837Z,99.90
2023-03-05T03:23:30.898Z,99.90
2023-03-05T03:26:32.070Z,99.90
2023-03-05T03:29:33.535Z,99.90
2023-03-05T03:32:34.553Z,99.90
2023-03-05T03:35:35.844Z,99.90
2023-03-05T03:38:37.137Z,99.90
2023-03-05T03:41:43.430Z,99.90
2023-03-05T03:44:44.815Z,99.90
2023-03-05T03:47:45.534Z,99.90
2023-03-05T03:50:46.351Z,99.90
2023-03-05T03:53:47.250Z,99.90
2023-03-05T03:56:48.645Z,99.90
2023-03-05T03:59:50.550Z,99.90
2023-03-05T04:02:51.410Z,99.90
2023-03-05T04:05:52.204Z,99.90
2023-03-05T04:08:53.495Z,99.90
2023-03-05T04:11:54.597Z,99.90
2023-03-05T04:14:55.628Z,99.90
2023-03-05T04:17:56.871Z,99.90
2023-03-05T04:20:58.082Z,99.90
2023-03-05T04:23:59.323Z,99.90
2023-03-05T04:27:00.064Z,99.90
2023-03-05T04:30:01.602Z,99.90
2023-03-05T04:33:02.376Z,99.90
2023-03-05T04:36:03.822Z,99.90
2023-03-05T04:39:05.202Z,99.90
2023-03-05T04:42:09.453Z,99.90
2023-03-05T04:45:11.189Z,99.90
2023-03-05T04:48:12.883Z,99.90
2023-03-05T04:51:13.679Z,99.90
2023-03-05T04:54:14.866Z,99.90
2023-03-05T04:57:15.741Z,99.90
2023-03-05T05:00:18.686Z,99.90
2023-03-05T05:03:19.550Z,99.90
2023-03-05T05:06:20.632Z,99.90
2023-03-05T05:09:22.029Z,99.90
2023-03-05T05:12:22.788Z,99.90
2023-03-05T05:15:24.502Z,99.90
2023-03-05T05:18:27.549Z,99.90
2023-03-05T05:21:28.409Z,99.90
2023-03-05T05:24:29.690Z,99.90
2023-03-05T05:27:30.402Z,99.90
2023-03-05T05:30:31.171Z,99.90
2023-03-05T05:33:32.365Z,99.90
2023-03-05T05:36:33.179Z,99.90
2023-03-05T05:39:34.956Z,99.90
2023-03-05T05:42:35.957Z,99.90
2023-03-05T05:45:40.962Z,99.90
2023-03-05T05:48:42.770Z,99.90
2023-03-05T05:51:44.151Z,99.90
2023-03-05T05:54:45.193Z,99.90
2023-03-05T05:57:46.436Z,99.90
2023-03-05T06:00:47.228Z,99.90
2023-03-05T06:03:49.108Z,99.90
2023-03-05T06:06:50.215Z,99.90
2023-03-05T06:09:51.305Z,99.90
2023-03-05T06:12:51.920Z,99.90
2023-03-05T06:15:58.766Z,99.90
2023-03-05T06:19:00.268Z,99.90
2023-03-05T06:22:00.863Z,99.90
2023-03-05T06:25:01.576Z,99.90
2023-03-05T06:28:02.735Z,99.90
2023-03-05T06:31:22.715Z,99.90
2023-03-05T06:34:23.805Z,99.90
2023-03-05T06:37:24.618Z,99.90
2023-03-05T06:40:25.896Z,99.90
2023-03-05T06:43:27.212Z,99.90
2023-03-05T06:46:31.955Z,99.90
2023-03-05T06:49:33.346Z,99.90
2023-03-05T06:52:34.382Z,99.90
2023-03-05T06:55:39.883Z,99.90
2023-03-05T06:58:41.528Z,99.90
2023-03-05T07:01:43.693Z,99.90
2023-03-05T07:04:45.017Z,99.90
2023-03-05T07:07:46.025Z,99.90
2023-03-05T07:10:46.746Z,99.90
2023-03-05T07:13:48.317Z,99.90
2023-03-05T07:16:50.442Z,99.90
2023-03-05T07:19:51.640Z,99.90
2023-03-05T07:22:52.922Z,99.90
2023-03-05T07:25:54.159Z,99.90
2023-03-05T07:28:55.780Z,99.90
2023-03-05T07:31:56.749Z,99.90
2023-03-05T07:34:57.576Z,99.90
2023-03-05T07:37:58.428Z,99.90
2023-03-05T07:41:09.578Z,99.90
2023-03-05T07:44:10.419Z,99.90
2023-03-05T07:47:11.378Z,99.90
2023-03-05T07:50:12.792Z,99.90
2023-03-05T07:53:15.196Z,99.90
2023-03-05T07:56:32.659Z,99.90
2023-03-05T07:59:33.843Z,99.90
2023-03-05T08:02:35.159Z,99.90
2023-03-05T08:05:40.467Z,99.90
2023-03-05T08:08:41.374Z,99.90
2023-03-05T08:11:42.536Z,99.90
2023-03-05T08:14:43.369Z,99.90
2023-03-05T08:17:44.466Z,99.90
2023-03-05T08:20:45.222Z,99.90
2023-03-05T08:23:47.003Z,99.90
2023-03-05T08:26:47.721Z,99.90
2023-03-05T08:29:48.530Z,99.90
2023-03-05T08:32:50.297Z,99.90
2023-03-05T08:35:51.140Z,99.90
2023-03-05T08:38:52.475Z,99.90
2023-03-05T08:41:53.408Z,99.90
2023-03-05T08:44:54.365Z,99.90
2023-03-05T08:47:57.404Z,99.90
2023-03-05T08:51:05.765Z,99.90
2023-03-05T08:54:07.698Z,99.90
2023-03-05T08:57:08.857Z,99.90
2023-03-05T09:00:12.755Z,99.90
2023-03-05T09:03:14.096Z,99.90
2023-03-05T09:06:16.114Z,99.90
2023-03-05T09:09:16.937Z,99.90
2023-03-05T09:12:17.766Z,99.90
2023-03-05T09:15:18.504Z,99.90
2023-03-05T09:18:19.928Z,99.90
2023-03-05T09:21:21.168Z,99.90
2023-03-05T09:24:21.922Z,99.90
2023-03-05T09:27:23.094Z,99.90
2023-03-05T09:30:24.054Z,99.90
2023-03-05T09:33:25.182Z,99.90
2023-03-05T09:36:30.173Z,99.90
2023-03-05T09:39:31.163Z,99.90
2023-03-05T09:43:02.522Z,99.90
2023-03-05T09:46:44.052Z,99.90
2023-03-05T09:50:14.994Z,99.90
2023-03-05T09:53:37.458Z,99.90
2023-03-05T09:56:57.032Z,99.90
2023-03-05T10:00:09.916Z,99.90
2023-03-05T10:03:42.407Z,99.90
2023-03-05T10:07:02.889Z,99.90
2023-03-05T10:10:14.378Z,99.90
2023-03-05T10:13:32.426Z,99.90
2023-03-05T10:17:17.820Z,99.90
2023-03-05T10:20:21.550Z,99.90
2023-03-05T10:24:11.628Z,99.90
2023-03-05T10:27:41.177Z,99.90
2023-03-05T10:31:07.508Z,99.90
2023-03-05T10:34:25.660Z,99.30
2023-03-05T10:38:12.687Z,99.90
2023-03-05T10:41:16.304Z,99.90
2023-03-05T10:44:36.440Z,99.90
2023-03-05T10:47:59.565Z,98.80
2023-03-05T10:51:17.018Z,97.60
2023-03-05T10:54:29.807Z,99.90
2023-03-05T10:57:34.102Z,99.90
2023-03-05T11:00:34.953Z,94.20
2023-03-05T11:04:04.364Z,91.80
2023-03-05T11:07:25.346Z,92.00
2023-03-05T11:10:26.784Z,92.50
2023-03-05T11:13:29.368Z,88.40
2023-03-05T11:16:34.087Z,85.80
2023-03-05T11:19:35.515Z,84.70
2023-03-05T11:22:36.544Z,80.60
2023-03-05T11:26:13.424Z,77.40
2023-03-05T11:29:31.064Z,79.60
2023-03-05T11:32:32.174Z,80.90
2023-03-05T11:35:38.176Z,81.00
2023-03-05T11:39:08.066Z,77.70
2023-03-05T11:42:25.177Z,77.10
2023-03-05T11:45:28.788Z,79.20
2023-03-05T11:48:37.189Z,77.20
2023-03-05T11:51:48.662Z,80.20
2023-03-05T11:54:57.246Z,76.60
2023-03-05T11:58:26.726Z,79.80
2023-03-05T12:01:33.134Z,73.40
2023-03-05T12:04:36.545Z,67.00
2023-03-05T12:07:46.593Z,64.30
2023-03-05T12:10:47.849Z,63.60
2023-03-05T12:14:38.830Z,61.30
2023-03-05T12:18:10.389Z,60.10
2023-03-05T12:21:39.763Z,62.40
2023-03-05T12:24:41.105Z,66.00
2023-03-05T12:27:42.488Z,77.90
2023-03-05T12:30:43.632Z,79.40
2023-03-05T12:33:44.753Z,85.70
2023-03-05T12:36:46.421Z,88.00
2023-03-05T12:40:23.039Z,88.40
2023-03-05T12:43:30.120Z,90.40
2023-03-05T12:46:44.454Z,91.50
2023-03-05T12:49:47.479Z,93.10
2023-03-05T12:52:48.777Z,94.20
2023-03-05T12:56:22.261Z,93.30
2023-03-05T12:59:48.335Z,93.70
2023-03-05T13:02:58.690Z,93.70
2023-03-05T13:06:01.044Z,92.50
2023-03-05T13:09:15.899Z,92.00
2023-03-05T13:12:17.682Z,92.30
2023-03-05T13:15:18.751Z,79.20
2023-03-05T13:18:24.159Z,83.40
2023-03-05T13:21:29.846Z,85.80
2023-03-05T13:24:31.267Z,85.00
2023-03-05T13:27:33.615Z,87.80
2023-03-05T13:30:34.856Z,88.20
2023-03-05T13:33:36.680Z,88.70
2023-03-05T13:36:39.814Z,88.00
2023-03-05T13:40:15.686Z,89.00
2023-03-05T13:43:20.847Z,90.90
2023-03-05T13:46:38.817Z,81.60
2023-03-05T13:49:39.655Z,78.30
2023-03-05T13:52:40.511Z,76.30
2023-03-05T13:55:42.101Z,83.00
2023-03-05T13:58:57.367Z,79.30
2023-03-05T14:02:01.550Z,82.60
2023-03-05T14:05:03.201Z,83.80
2023-03-05T14:08:04.689Z,85.90
2023-03-05T14:11:18.739Z,83.00
2023-03-05T14:14:22.158Z,78.30
2023-03-05T14:17:40.895Z,70.20
2023-03-05T14:21:10.008Z,66.60
2023-03-05T14:24:23.582Z,63.00
2023-03-05T14:27:25.144Z,65.30
2023-03-05T14:30:26.755Z,64.30
2023-03-05T14:33:32.626Z,68.90
2023-03-05T14:36:34.873Z,71.30
2023-03-05T14:39:50.020Z,74.80
2023-03-05T14:43:10.641Z,76.80
2023-03-05T14:46:13.490Z,73.80
2023-03-05T14:49:14.649Z,75.30
2023-03-05T14:52:25.880Z,80.40
2023-03-05T14:55:33.875Z,84.70
2023-03-05T14:58:37.830Z,87.00
2023-03-05T15:01:38.839Z,89.10
2023-03-05T15:04:40.713Z,90.00
2023-03-05T15:07:44.307Z,92.00
2023-03-05T15:10:45.532Z,90.60
2023-03-05T15:13:46.631Z,87.60
2023-03-05T15:16:48.928Z,90.60
2023-03-05T15:19:50.466Z,91.50
2023-03-05T15:22:51.780Z,91.20
2023-03-05T15:25:52.587Z,93.40
2023-03-05T15:28:53.401Z,92.70
2023-03-05T15:31:54.239Z,93.30
2023-03-05T15:34:55.893Z,93.10
2023-03-05T15:37:58.267Z,90.80
2023-03-05T15:41:01.722Z,94.40
2023-03-05T15:44:02.982Z,96.10
2023-03-05T15:47:03.872Z,94.60
2023-03-05T15:50:05.881Z,93.30
2023-03-05T15:53:08.201Z,95.10
2023-03-05T15:56:16.651Z,96.00
2023-03-05T15:59:18.689Z,93.80
2023-03-05T16:02:19.547Z,95.90
2023-03-05T16:05:20.654Z,95.10
2023-03-05T16:08:21.372Z,90.60
2023-03-05T16:11:22.668Z,92.40
2023-03-05T16:14:27.952Z,95.80
2023-03-05T16:17:29.187Z,97.60
2023-03-05T16:20:30.208Z,98.80
2023-03-05T16:23:31.398Z,99.90
2023-03-05T16:26:37.351Z,99.90
2023-03-05T16:29:38.647Z,99.90
2023-03-05T16:32:39.433Z,99.90
2023-03-05T16:35:40.646Z,99.90
2023-03-05T16:38:41.426Z,99.90
2023-03-05T16:41:42.248Z,99.90
2023-03-05T16:44:44.916Z,99.90
2023-03-05T16:47:45.840Z,99.90
2023-03-05T16:50:46.625Z,99.90
2023-03-05T16:53:47.427Z,99.90
2023-03-05T16:56:48.725Z,99.90
2023-03-05T16:59:50.241Z,99.90
2023-03-05T17:02:51.309Z,99.90
2023-03-05T17:05:51.912Z,99.90
2023-03-05T17:08:54.782Z,99.90
2023-03-05T17:11:55.805Z,99.90
2023-03-05T17:14:56.936Z,99.90
2023-03-05T17:17:58.210Z,99.90
2023-03-05T17:21:02.339Z,99.90
2023-03-05T17:24:03.977Z,99.90
2023-03-05T17:27:05.085Z,99.90
2023-03-05T17:30:08.483Z,99.90
2023-03-05T17:33:11.571Z,99.90
2023-03-05T17:36:19.413Z,99.90
2023-03-05T17:39:20.735Z,99.90
2023-03-05T17:42:21.650Z,99.90
2023-03-05T17:45:23.096Z,99.90
2023-03-05T17:48:24.092Z,99.90
2023-03-05T17:51:24.830Z,99.90
2023-03-05T17:54:26.305Z,99.90
2023-03-05T17:57:27.205Z,99.90
2023-03-05T18:00:30.453Z,99.90
2023-03-05T18:03:32.103Z,99.90
2023-03-05T18:06:33.374Z,99.90
2023-03-05T18:09:34.349Z,99.90
2023-03-05T18:12:36.248Z,99.90
2023-03-05T18:15:40.620Z,99.90
2023-03-05T18:18:42.022Z,99.90
2023-03-05T18:21:43.048Z,99.90
2023-03-05T18:24:44.175Z,99.90
2023-03-05T18:27:45.468Z,99.90
2023-03-05T18:30:48.063Z,99.90
2023-03-05T18:33:50.489Z,99.90
2023-03-05T18:36:51.770Z,99.90
2023-03-05T18:39:52.888Z,99.90
2023-03-05T18:42:54.625Z,99.90
2023-03-05T18:45:57.080Z,99.90
2023-03-05T18:48:58.093Z,99.90
2023-03-05T18:51:58.876Z,99.90
2023-03-05T18:55:00.189Z,99.90
2023-03-05T18:58:01.208Z,99.90
2023-03-05T19:01:03.880Z,99.90
2023-03-05T19:04:05.272Z,99.90
2023-03-05T19:07:06.409Z,99.90
2023-03-05T19:10:11.953Z,99.90
2023-03-05T19:13:40.742Z,99.90
2023-03-05T19:16:44.253Z,99.90
2023-03-05T19:19:51.374Z,99.90
2023-03-05T19:22:52.474Z,99.90
2023-03-05T19:25:53.470Z,99.90
2023-03-05T19:28:55.357Z,99.90
2023-03-05T19:31:56.210Z,99.90
2023-03-05T19:34:59.055Z,99.90
2023-03-05T19:38:00.290Z,99.90
2023-03-05T19:41:01.048Z,99.90
2023-03-05T19:44:02.891Z,99.90
2023-03-05T19:47:04.191Z,99.90
2023-03-05T19:50:06.357Z,99.90
2023-03-05T19:53:07.360Z,99.90
2023-03-05T19:56:10.165Z,99.90
2023-03-05T19:59:11.000Z,99.90
2023-03-05T20:02:13.320Z,99.90
2023-03-05T20:05:14.598Z,99.90
2023-03-05T20:08:16.139Z,99.90
2023-03-05T20:11:19.049Z,99.90
2023-03-05T20:14:20.417Z,99.90
2023-03-05T20:17:21.697Z,99.90
2023-03-05T20:20:22.568Z,99.90
2023-03-05T20:23:24.681Z,99.90
2023-03-05T20:26:27.467Z,99.90
2023-03-05T20:29:28.727Z,99.90
2023-03-05T20:32:29.677Z,99.90
2023-03-05T20:35:30.638Z,99.90
2023-03-05T20:38:31.823Z,99.90
2023-03-05T20:41:36.483Z,99.90
2023-03-05T20:44:37.543Z,99.90
2023-03-05T20:47:42.455Z,99.90
2023-03-05T20:50:43.742Z,99.90
2023-03-05T20:53:45.878Z,99.90
2023-03-05T20:56:47.888Z,99.90
2023-03-05T20:59:48.913Z,99.90
2023-03-05T21:02:51.848Z,99.90
2023-03-05T21:05:56.548Z,99.90
2023-03-05T21:08:58.936Z,99.90
2023-03-05T21:12:00.401Z,99.90
2023-03-05T21:15:01.459Z,99.90
2023-03-05T21:18:02.259Z,99.90
2023-03-05T21:21:03.829Z,99.90
2023-03-05T21:24:05.573Z,99.90
2023-03-05T21:27:06.550Z,99.90
2023-03-05T21:30:09.635Z,99.90
2023-03-05T21:33:15.750Z,99.90
2023-03-05T21:36:19.024Z,99.90
2023-03-05T21:39:20.242Z,99.90
2023-03-05T21:42:20.918Z,99.90
2023-03-05T21:45:27.132Z,99.90
2023-03-05T21:48:28.842Z,99.90
2023-03-05T21:52:09.748Z,99.90
2023-03-05T21:55:15.825Z,99.90
2023-03-05T21:58:16.595Z,99.90
2023-03-05T22:01:19.607Z,99.90
2023-03-05T22:04:20.841Z,99.90
2023-03-05T22:07:22.074Z,99.90
2023-03-05T22:10:23.286Z,99.90
2023-03-05T22:13:24.390Z,99.90
2023-03-05T22:16:27.532Z,99.90
2023-03-05T22:19:29.969Z,99.90
2023-03-05T22:22:31.021Z,99.90
2023-03-05T22:25:32.891Z,99.90
2023-03-05T22:28:35.866Z,99.90
2023-03-05T22:31:36.728Z,99.90
2023-03-05T22:34:37.722Z,99.90
2023-03-05T22:37:40.329Z,99.90
2023-03-05T22:40:44.762Z,99.90
2023-03-05T22:43:47.168Z,99.90
2023-03-05T22:46:48.265Z,99.90
2023-03-05T22:49:49.314Z,99.90
2023-03-05T22:52:50.999Z,99.90
2023-03-05T22:55:52.193Z,99.90
2023-03-05T22:58:52.914Z,99.90
2023-03-05T23:01:54.207Z,99.90
2023-03-05T23:05:00.532Z,99.90
2023-03-05T23:08:01.444Z,99.90
2023-03-05T23:11:12.073Z,99.90
2023-03-05T23:14:13.113Z,99.90
2023-03-05T23:17:14.607Z,99.90
2023-03-05T23:20:24.009Z,99.90
2023-03-05T23:23:24.821Z,99.90
2023-03-05T23:26:25.809Z,99.90
2023-03-05T23:30:23.704Z,99.90
2023-03-05T23:33:25.171Z,99.90
2023-03-05T23:36:26.681Z,99.90
2023-03-05T23:39:27.636Z,99.90
2023-03-05T23:42:28.279Z,99.90
2023-03-05T23:45:30.281Z,99.90
2023-03-05T23:48:31.381Z,99.90
2023-03-05T23:51:32.393Z,99.90
2023-03-05T23:54:33.258Z,99.90
2023-03-05T23:57:35.762Z,99.90
